All Stations Radar Satellite Rainfall Station Map Enhanced Site
Observations: Wind Gusts Humidity Temperature    
Forecasts: Wind Gusts Humidity Temperature    

Mt. Soledad (578) Station Data (Station Map)

Red Flag Warning: No
Fire Weather Zone: 243
SDGE Region: Beach Cities
Lat/Lon: 32.814/-117.241

Observations

Time (PDT)Wind Spd/GustTempRHFuel Moisture
11/1 5:00amWSW 3 G 862°95%49.8%
11/1 4:50amWSW 2 G 661°95%49.73%
11/1 4:40amW 4 G 1061°94%49.35%
11/1 4:30amWSW 4 G 1162°93%48.73%
11/1 4:20amSW 5 G 1462°92%46.11%
11/1 4:10amSSW 5 G 1262°93%39.72%
11/1 4:00amSSW 5 G 1162°93%40.41%
11/1 3:50amSSW 4 G 1262°93%41.89%
11/1 3:40amSW 5 G 1362°92%42.45%
11/1 3:30amSW 5 G 1563°90%41.24%
11/1 3:20amS 6 G 1664°84%28.89%
11/1 3:10amS 5 G 1265°77%16.25%
11/1 3:00amS 8 G 1966°72%13.7%
11/1 2:50amS 8 G 1666°72%13.48%
11/1 2:40amS 6 G 1366°72%13.48%
11/1 2:30amS 7 G 1366°72%13.48%
11/1 2:20amS 7 G 1766°71%13.48%
11/1 2:10amS 6 G 1466°71%13.49%
11/1 2:00amS 5 G 1166°71%13.48%
11/1 1:50amSSE 5 G 1166°72%13.5%
11/1 1:40amS 4 G 1066°72%13.5%
11/1 1:30amSSE 5 G 966°71%13.51%
11/1 1:20amS 5 G 1066°72%13.52%
11/1 1:10amS 5 G 1166°72%13.5%
11/1 1:00amS 5 G 1066°69%13.5%
11/1 12:50amS 4 G 1166°68%13.5%
11/1 12:40amS 5 G 1066°71%13.56%
11/1 12:30amS 4 G 966°71%13.59%
11/1 12:20amS 5 G 966°72%13.63%
11/1 12:10amS 4 G 1165°73%13.66%
11/1 12:00amS 4 G 765°73%13.67%
10/31 11:50pmS 4 G 865°74%13.69%
10/31 11:40pmS 3 G 665°75%13.7%
10/31 11:30pmSSW 2 G 665°75%13.72%
10/31 11:20pmSW 3 G 1165°75%13.71%
10/31 11:10pmSSW 4 G 1166°75%13.72%
10/31 11:00pmSSW 4 G 865°75%13.74%
10/31 10:50pmSSW 3 G 865°77%13.77%
10/31 10:40pmSSW 5 G 1266°78%13.77%
10/31 10:30pmSW 4 G 1166°78%13.77%
10/31 10:20pmSSW 4 G 966°78%13.76%
10/31 10:10pmSSW 4 G 966°78%13.76%
10/31 10:00pmSSW 4 G 966°78%13.76%
10/31 9:50pmSSW 3 G 1166°78%13.76%
10/31 9:40pmSSW 3 G 966°78%13.75%
10/31 9:30pmS 4 G 766°78%13.74%
10/31 9:20pmSSW 3 G 866°78%13.74%
10/31 9:10pmS 4 G 766°79%13.75%
10/31 9:00pmS 3 G 666°81%13.76%
10/31 8:50pmSSW 2 G 565°82%13.75%
10/31 8:40pmS 2 G 465°82%13.73%
10/31 8:30pmS 3 G 665°83%13.69%
10/31 8:20pmSSW 2 G 665°83%13.66%
10/31 8:10pmSSW 2 G 665°84%13.63%
10/31 8:00pmSW 2 G 665°84%13.58%
10/31 7:50pmSW 3 G 665°84%13.52%
10/31 7:40pmSW 3 G 866°84%13.45%
10/31 7:30pmSW 2 G 666°84%13.38%
10/31 7:20pmSW 3 G 766°83%13.31%
10/31 7:10pmSW 3 G 666°81%13.22%
10/31 7:00pmS 2 G 566°77%13.09%
10/31 6:50pmS 2 G 566°77%13.04%
10/31 6:40pmS 2 G 366°76%12.98%
10/31 6:30pmSSE 1 G 466°76%12.9%
10/31 6:20pmSSW 1 G 366°76%12.85%
10/31 6:10pmS 1 G 466°75%12.8%
10/31 6:00pmSSW 2 G 367°74%12.75%
10/31 5:50pmSW 2 G 567°74%12.73%
10/31 5:40pmSSW 1 G 367°73%12.7%
10/31 5:30pmSSW 2 G 467°72%12.67%
10/31 5:20pmSSW 2 G 667°73%12.65%
10/31 5:10pmSW 2 G 667°72%12.65%
10/31 5:00pmWSW 1 G 467°71%12.67%
10/31 4:50pmSW 3 G 867°71%12.65%
10/31 4:40pmWSW 2 G 667°71%12.64%
10/31 4:30pmWSW 2 G 768°72%12.65%
10/31 4:20pmSW 2 G 668°70%12.63%
10/31 4:10pmWSW 3 G 668°71%12.65%
10/31 4:00pmWSW 3 G 768°70%12.68%
10/31 3:50pmWSW 3 G 668°71%12.69%
10/31 3:40pmSW 3 G 668°71%12.71%
10/31 3:30pmWNW 3 G 668°70%12.73%
10/31 3:20pmWSW 3 G 668°68%12.73%
10/31 3:10pmWSW 3 G 668°65%12.78%
10/31 3:00pmW 2 G 568°67%12.87%
10/31 2:50pmSW 2 G 568°68%12.98%
10/31 2:40pmWNW 2 G 668°69%13.06%
10/31 2:30pmWNW 2 G 668°70%13.15%
10/31 2:20pmWNW 3 G 668°71%13.19%
10/31 2:10pmWNW 4 G 968°72%13.22%
10/31 2:00pmW 4 G 868°73%13.23%
10/31 1:50pmWNW 5 G 1068°74%13.26%
10/31 1:40pmWNW 5 G 968°73%13.27%
10/31 1:30pmWNW 4 G 868°72%13.31%
10/31 1:20pmWNW 4 G 768°72%13.4%
10/31 1:10pmW 4 G 868°72%13.49%
10/31 1:00pmW 4 G 868°72%13.56%
10/31 12:50pmWSW 3 G 768°72%13.65%
10/31 12:40pmW 4 G 868°70%13.76%
10/31 12:30pmWNW 3 G 668°69%13.87%
10/31 12:20pmSW 2 G 668°70%14.04%
10/31 12:10pmW 2 G 568°72%14.21%
10/31 12:00pmWNW 2 G 668°74%14.39%
10/31 11:50amW 3 G 668°75%14.45%
10/31 11:40amW 4 G 767°75%14.52%
10/31 11:30amWSW 3 G 767°76%14.58%
10/31 11:20amWSW 3 G 767°75%14.63%
10/31 11:10amWSW 3 G 867°76%14.68%
10/31 11:00amWSW 2 G 667°76%14.77%
10/31 10:50amWSW 3 G 667°77%14.84%
10/31 10:40amWSW 3 G 667°77%14.91%
10/31 10:30amWSW 3 G 968°77%14.97%
10/31 10:20amW 3 G 668°77%15.06%
10/31 10:10amW 3 G 968°77%15.2%
10/31 10:00amWSW 3 G 668°78%15.34%
10/31 9:50amWSW 3 G 668°77%15.47%
10/31 9:40amSW 3 G 768°75%15.66%
10/31 9:30amSW 2 G 569°74%15.9%
10/31 9:20amSW 2 G 468°74%16.41%
10/31 9:10amWNW 1 G 367°79%16.87%
10/31 9:00amWNW 2 G 467°80%17.19%
10/31 8:50amNW 1 G 266°83%17.57%
10/31 8:40amNW 0 G 266°84%17.74%
10/31 8:30amNNW 0 G 166°84%17.9%
10/31 8:20amNW 1 G 265°85%18%
10/31 8:10amNW 1 G 265°85%18.1%
10/31 8:00amNW 1 G 265°85%18.2%
10/31 7:50amWNW 1 G 365°85%18.28%
10/31 7:40amNW 2 G 365°85%18.36%
10/31 7:30amNW 2 G 365°84%18.46%
10/31 7:20amNW 2 G 365°85%18.57%
10/31 7:10amNNW 2 G 365°85%18.66%
10/31 7:00amNW 3 G 365°85%18.73%
10/31 6:50amNW 2 G 365°85%18.82%
10/31 6:40amNW 1 G 265°87%18.88%
10/31 6:30amNNW 1 G 264°88%18.93%
10/31 6:20amNNW 1 G 264°88%18.94%
10/31 6:10amNNW 1 G 264°88%18.94%
10/31 6:00amNNW 2 G 264°88%18.97%
10/31 5:50amNNW 2 G 264°89%19%
10/31 5:40amNNW 2 G 364°89%19.02%
10/31 5:30amNNW 2 G 364°89%19%
10/31 5:20amNNW 2 G 364°89%18.99%
10/31 5:10amNNW 2 G 364°89%18.92%
10/31 5:00amNNW 2 G 364°89%18.91%
10/31 4:50amNW 2 G 364°89%18.9%
10/31 4:40amNW 2 G 364°90%18.91%
10/31 4:30amNW 3 G 364°90%18.95%
10/31 4:20amNW 2 G 364°90%18.94%
10/31 4:10amNW 2 G 364°91%18.92%
10/31 4:00amNW 2 G 364°92%18.92%
10/31 3:50amNNW 2 G 364°92%18.92%
10/31 3:40amNNW 2 G 364°93%18.83%
10/31 3:30amNNW 1 G 264°93%18.78%
10/31 3:20amNNW 2 G 264°93%18.71%
10/31 3:10amNNW 2 G 264°93%18.6%
10/31 3:00amNNW 1 G 264°93%18.5%
10/31 2:50amNNW 2 G 264°94%18.45%
10/31 2:40amNNW 1 G 264°93%18.4%
10/31 2:30amNNW 1 G 264°94%18.38%
10/31 2:20amN 1 G 264°94%18.25%
10/31 2:10amN 1 G 264°94%18.16%
10/31 2:00amNNW 1 G 263°93%17.98%
10/31 1:50amNNW 0 G 263°93%17.82%
10/31 1:40amN 1 G 164°93%17.65%
10/31 1:30amNNW 1 G 264°93%17.52%
10/31 1:20amNNW 0 G 164°93%17.39%
10/31 1:10amNNW 0 G 164°93%17.27%
10/31 1:00amN 0 G 064°93%17.17%
10/31 12:50amNNE 0 G 165°93%17.11%
10/31 12:40amNNW 0 G 164°93%16.98%
10/31 12:30amN 0 G 064°92%16.89%
10/31 12:20amNNW 0 G 164°92%16.77%
10/31 12:10amNNW 2 G 364°92%16.68%
10/31 12:00amNNW 2 G 364°92%16.55%
10/30 11:50pmNNW 2 G 264°91%16.38%
10/30 11:40pmNNW 2 G 364°91%16.24%
10/30 11:30pmNNW 1 G 264°91%16.12%
10/30 11:20pmN 0 G 164°91%15.93%
10/30 11:10pmNNE 1 G 264°91%15.75%
10/30 11:00pmN 0 G 164°90%15.64%
10/30 10:50pmN 1 G 265°90%15.54%
10/30 10:40pmNNW 1 G 264°90%15.4%
10/30 10:30pmNW 1 G 365°89%15.3%
10/30 10:20pmW 1 G 265°89%15.21%
10/30 10:10pmWNW 1 G 165°89%15.08%
10/30 10:00pmNW 0 G 165°89%15.02%
10/30 9:50pmN 1 G 365°88%14.91%
10/30 9:40pmN 1 G 366°88%14.82%
10/30 9:30pmNNW 1 G 266°88%14.78%
10/30 9:20pmNNW 2 G 366°88%14.74%
10/30 9:10pmW 2 G 466°89%14.68%
10/30 9:00pmNW 2 G 465°90%14.64%
10/30 8:50pmWNW 2 G 565°90%14.55%
10/30 8:40pmWNW 2 G 365°90%14.45%
10/30 8:30pmW 2 G 465°90%14.31%
10/30 8:20pmW 2 G 464°90%14.18%
10/30 8:10pmW 3 G 564°89%14.05%
10/30 8:00pmWSW 1 G 365°89%13.89%
10/30 7:50pmE 1 G 265°89%13.69%
10/30 7:40pmNE 3 G 565°88%13.48%
10/30 7:30pmNNE 2 G 366°87%13.31%
10/30 7:20pmN 2 G 366°87%13.2%
10/30 7:10pmNNW 2 G 366°87%13.14%
10/30 7:00pmNW 2 G 366°86%13.07%
10/30 6:50pmNNW 2 G 367°86%12.9%
10/30 6:40pmWNW 2 G 467°85%12.85%
10/30 6:30pmWNW 2 G 367°85%12.76%
10/30 6:20pmWNW 2 G 467°85%12.67%
10/30 6:10pmNW 2 G 467°84%12.58%
10/30 6:00pmNNW 2 G 467°84%12.51%